Time;durP1;ratioP1;P1;durP2;ratioP2;P2;SDS_P1;SDS_P2;PMS_P1;PMS_P2;Temp;Humidity;BMP_temperature;BMP_pressure;BME280_temperature;BME280_humidity;BME280_pressure;Samples;Min_cycle;Max_cycle;Signal;HPM_P1;HPM_P2
2022/10/17 00:00:11;;;;;;;8.25;7.45;;;;;;;13.92;100.00;101249.31;5043793;28;20064;-75
2022/10/17 00:02:36;;;;;;;11.60;8.85;;;;;;;13.86;100.00;101249.38;5043916;28;20037;-76
2022/10/17 00:05:02;;;;;;;8.73;7.28;;;;;;;13.78;100.00;101257.38;5042116;28;20044;-76
2022/10/17 00:07:29;;;;;;;10.65;7.88;;;;;;;13.73;100.00;101253.00;5041742;28;20562;-76
2022/10/17 00:09:54;;;;;;;10.00;7.80;;;;;;;13.65;100.00;101253.06;5043260;28;20052;-76
2022/10/17 00:12:19;;;;;;;7.57;6.82;;;;;;;13.56;100.00;101251.34;5040467;28;20041;-75
2022/10/17 00:14:45;;;;;;;10.82;7.72;;;;;;;13.49;100.00;101260.25;5043467;28;20514;-76
2022/10/17 00:17:10;;;;;;;8.98;7.60;;;;;;;13.44;100.00;101255.84;5041254;28;20480;-75
2022/10/17 00:19:35;;;;;;;7.80;7.05;;;;;;;13.37;100.00;101255.88;5042406;28;20047;-76
2022/10/17 00:22:01;;;;;;;10.60;7.82;;;;;;;13.32;100.00;101252.38;5042564;28;20033;-76
2022/10/17 00:24:26;;;;;;;9.88;7.80;;;;;;;13.26;100.00;101254.19;5044412;28;20044;-76
2022/10/17 00:26:51;;;;;;;7.68;6.82;;;;;;;13.20;100.00;101243.59;5040107;28;20038;-75
2022/10/17 00:29:17;;;;;;;14.75;8.55;;;;;;;13.14;100.00;101249.81;5040517;28;20048;-75
2022/10/17 00:31:45;;;;;;;9.45;8.50;;;;;;;13.08;100.00;101248.06;5042876;28;20419;-76
2022/10/17 00:34:11;;;;;;;8.80;7.75;;;;;;;13.05;100.00;101241.91;5041751;28;20037;-75
2022/10/17 00:36:36;;;;;;;10.18;7.95;;;;;;;13.02;100.00;101248.13;5042373;28;20032;-76
2022/10/17 00:39:02;;;;;;;8.23;7.45;;;;;;;12.99;100.00;101248.09;5039607;28;20045;-76
2022/10/17 00:41:31;;;;;;;9.02;7.53;;;;;;;12.95;100.00;101241.06;5043848;28;20438;-75
2022/10/17 00:43:57;;;;;;;7.75;6.95;;;;;;;12.89;100.00;101244.63;5045198;28;20036;-76
2022/10/17 00:46:34;;;;;;;10.00;7.88;;;;;;;12.86;100.00;101246.41;5020437;28;20037;-75
2022/10/17 00:49:08;;;;;;;8.10;7.05;;;;;;;12.89;100.00;101246.38;5042209;28;20535;-76
2022/10/17 00:51:56;;;;;;;8.63;7.72;;;;;;;12.83;100.00;101257.00;5042018;28;20050;-75
2022/10/17 00:54:30;;;;;;;9.07;7.72;;;;;;;12.82;100.00;101258.78;5040058;28;20048;-75
2022/10/17 00:56:56;;;;;;;8.38;7.57;;;;;;;12.79;100.00;101250.84;5055131;28;20373;-75
2022/10/17 00:59:22;;;;;;;8.95;8.15;;;;;;;12.77;100.00;101255.28;5042260;28;20040;-75
2022/10/17 01:01:55;;;;;;;8.70;7.90;;;;;;;12.75;100.00;101266.75;5042318;28;20033;-75
2022/10/17 01:04:20;;;;;;;8.00;7.18;;;;;;;12.71;100.00;101261.47;5041877;28;20044;-76
2022/10/17 01:06:45;;;;;;;8.95;7.93;;;;;;;12.68;100.00;101258.84;5055098;28;20041;-75
2022/10/17 01:09:11;;;;;;;7.28;6.57;;;;;;;12.66;100.00;101257.97;5043821;28;20041;-76
2022/10/17 01:11:51;;;;;;;9.13;6.47;;;;;;;12.62;100.00;101253.53;5040137;28;20140;-76
2022/10/17 01:14:35;;;;;;;8.43;6.68;;;;;;;12.61;100.00;101256.22;5041058;28;20037;-76
2022/10/17 01:17:26;;;;;;;8.13;7.25;;;;;;;12.58;100.00;101258.88;5049163;28;20044;-76
2022/10/17 01:20:13;;;;;;;7.15;6.53;;;;;;;12.59;100.00;101264.16;5042508;28;20496;-75
2022/10/17 01:22:48;;;;;;;7.38;6.15;;;;;;;12.58;100.00;101264.19;5059976;28;20033;-76
2022/10/17 01:25:48;;;;;;;7.32;6.03;;;;;;;12.58;100.00;101254.47;5045767;28;20557;-74
2022/10/17 01:28:21;;;;;;;8.88;7.22;;;;;;;12.53;100.00;101253.59;5046164;28;20037;-76
2022/10/17 01:30:58;;;;;;;8.40;5.97;;;;;;;12.50;100.00;101248.31;5042084;28;20037;-75
2022/10/17 01:33:46;;;;;;;7.25;5.85;;;;;;;12.48;100.00;101248.28;5045506;28;20033;-75
2022/10/17 01:36:24;;;;;;;7.60;6.65;;;;;;;12.46;100.00;101246.53;5043205;28;20040;-75
2022/10/17 01:38:57;;;;;;;8.65;7.05;;;;;;;12.45;100.00;101252.72;5042271;28;20061;-76
2022/10/17 01:41:35;;;;;;;7.00;6.32;;;;;;;12.41;100.00;101243.91;5045712;28;20494;-75
2022/10/17 01:44:04;;;;;;;6.40;5.80;;;;;;;12.40;100.00;101246.56;5041904;28;20041;-76
2022/10/17 01:46:36;;;;;;;9.32;6.78;;;;;;;12.39;100.00;101244.78;5046441;28;20028;-76
2022/10/17 01:49:05;;;;;;;8.13;7.28;;;;;;;12.37;100.00;101244.81;5044214;28;20053;-76
2022/10/17 01:51:42;;;;;;;11.30;7.68;;;;;;;12.37;100.00;101238.63;5042231;28;20044;-75
2022/10/17 01:54:20;;;;;;;6.82;6.13;;;;;;;12.38;100.00;101240.38;5043727;28;20487;-75
2022/10/17 01:56:50;;;;;;;8.55;6.50;;;;;;;12.37;100.00;101226.28;5042947;28;20029;-76
2022/10/17 01:59:21;;;;;;;7.97;6.70;;;;;;;12.37;100.00;101223.63;5044513;28;20049;-76
2022/10/17 02:01:49;;;;;;;6.75;5.90;;;;;;;12.39;100.00;101234.19;5043134;28;20030;-76
2022/10/17 02:04:15;;;;;;;8.30;7.38;;;;;;;12.37;100.00;101241.28;5053359;28;20028;-75
2022/10/17 02:06:41;;;;;;;10.07;6.30;;;;;;;12.35;100.00;101237.75;5038670;28;20064;-76
2022/10/17 02:09:17;;;;;;;6.22;5.63;;;;;;;12.33;100.00;101240.38;5043056;28;20033;-75
2022/10/17 02:11:49;;;;;;;7.60;6.80;;;;;;;12.32;100.00;101249.22;5042297;28;20041;-76
2022/10/17 02:14:47;;;;;;;8.90;6.50;;;;;;;12.31;100.00;101241.28;5042367;28;20026;-75
2022/10/17 02:17:26;;;;;;;7.93;6.60;;;;;;;12.28;100.00;101237.75;5044398;28;20037;-76
2022/10/17 02:20:23;;;;;;;7.35;6.65;;;;;;;12.25;100.00;101245.69;5046120;28;20041;-75
2022/10/17 02:22:53;;;;;;;6.65;6.05;;;;;;;12.22;100.00;101243.06;5059690;28;20029;-75
2022/10/17 02:25:33;;;;;;;8.35;6.90;;;;;;;12.20;100.00;101243.94;5043387;28;20036;-76
2022/10/17 02:28:22;;;;;;;7.35;6.07;;;;;;;12.24;100.00;101229.84;5042648;28;20408;-76
2022/10/17 02:31:13;;;;;;;7.05;6.28;;;;;;;12.23;100.00;101234.22;5043803;28;20152;-76
2022/10/17 02:33:53;;;;;;;8.25;7.03;;;;;;;12.19;100.00;101232.47;5033552;28;20133;-76
2022/10/17 02:36:23;;;;;;;6.45;5.85;;;;;;;12.17;100.00;101234.25;5042714;28;20487;-75
2022/10/17 02:38:52;;;;;;;8.10;7.03;;;;;;;12.12;100.00;101225.44;5043060;28;20057;-75
2022/10/17 02:41:19;;;;;;;6.90;6.20;;;;;;;12.13;100.00;101231.59;5043423;28;20024;-76
2022/10/17 02:43:47;;;;;;;7.13;6.43;;;;;;;12.12;100.00;101224.56;5041148;28;20055;-76
2022/10/17 02:46:19;;;;;;;10.13;7.78;;;;;;;12.13;100.00;101211.34;5041340;28;20033;-75
2022/10/17 02:49:00;;;;;;;7.13;6.43;;;;;;;12.13;100.00;101219.28;5042350;28;20581;-76
2022/10/17 02:51:28;;;;;;;7.43;6.38;;;;;;;12.12;100.00;101214.84;5041859;28;20064;-76
2022/10/17 02:54:21;;;;;;;7.82;7.00;;;;;;;12.12;100.00;101219.25;5042462;28;20496;-74
2022/10/17 02:56:54;;;;;;;7.90;6.50;;;;;;;12.11;100.00;101231.63;5043052;28;20034;-76
2022/10/17 02:59:23;;;;;;;8.00;6.88;;;;;;;12.15;100.00;101230.72;5042393;28;20642;-76
2022/10/17 03:01:50;;;;;;;9.43;7.20;;;;;;;12.16;100.00;101229.84;5045194;28;20037;-76
2022/10/17 03:04:17;;;;;;;6.70;6.05;;;;;;;12.15;100.00;101236.00;5042417;28;20033;-75
2022/10/17 03:06:44;;;;;;;7.95;7.15;;;;;;;12.15;100.00;101241.28;5056176;28;20041;-74
2022/10/17 03:09:09;;;;;;;8.50;6.70;;;;;;;12.15;100.00;101248.34;5044082;28;20029;-76
2022/10/17 03:11:35;;;;;;;9.50;6.72;;;;;;;12.14;100.00;101239.53;5043770;28;20040;-75
2022/10/17 03:14:00;;;;;;;11.20;5.68;;;;;;;12.12;100.00;101245.72;5041327;28;20041;-75
2022/10/17 03:16:26;;;;;;;6.55;5.85;;;;;;;12.06;100.00;101249.25;5042128;28;20033;-75
2022/10/17 03:18:52;;;;;;;8.43;6.55;;;;;;;12.01;100.00;101251.03;5038923;28;20121;-75
2022/10/17 03:21:17;;;;;;;6.78;5.72;;;;;;;11.99;100.00;101250.13;5043131;28;20043;-76
2022/10/17 03:23:42;;;;;;;9.93;8.35;;;;;;;11.96;100.00;101250.13;5040595;28;20064;-75
2022/10/17 03:26:08;;;;;;;6.68;5.85;;;;;;;11.94;100.00;101254.53;5055454;28;20036;-76
2022/10/17 03:28:34;;;;;;;7.25;6.25;;;;;;;11.92;100.00;101253.66;5051130;28;20091;-76
2022/10/17 03:31:06;;;;;;;6.22;5.60;;;;;;;11.86;100.00;101254.53;5046736;28;20033;-76
2022/10/17 03:33:31;;;;;;;7.95;5.80;;;;;;;11.79;100.00;101253.63;5047836;28;20037;-76
2022/10/17 03:35:57;;;;;;;8.27;6.78;;;;;;;11.78;100.00;101257.16;5044493;28;20037;-75
2022/10/17 03:38:22;;;;;;;8.00;6.72;;;;;;;11.77;100.00;101260.69;5039762;28;20037;-76
2022/10/17 03:40:55;;;;;;;8.05;6.63;;;;;;;11.75;100.00;101249.22;5043273;28;20513;-74
2022/10/17 03:43:20;;;;;;;10.00;6.20;;;;;;;11.73;100.00;101250.09;5055230;28;20653;-76
2022/10/17 03:45:45;;;;;;;9.90;8.07;;;;;;;11.72;100.00;101251.88;5042846;28;20037;-75
2022/10/17 03:48:11;;;;;;;8.77;7.30;;;;;;;11.72;100.00;101251.88;5041457;28;20091;-75
2022/10/17 03:50:36;;;;;;;7.70;7.00;;;;;;;11.69;100.00;101251.88;5039611;28;20033;-76
2022/10/17 03:53:02;;;;;;;8.40;6.70;;;;;;;11.61;100.00;101250.97;5042671;28;20043;-75
2022/10/17 03:55:27;;;;;;;8.02;7.10;;;;;;;11.57;100.00;101246.56;5053773;28;20116;-75
2022/10/17 03:57:53;;;;;;;10.15;8.18;;;;;;;11.59;100.00;101256.25;5041701;28;20095;-76
2022/10/17 04:00:20;;;;;;;8.85;7.53;;;;;;;11.64;100.00;101253.63;5040388;28;20057;-75
2022/10/17 04:02:52;;;;;;;10.88;8.82;;;;;;;11.68;100.00;101252.72;5042947;28;20037;-76
2022/10/17 04:05:18;;;;;;;9.20;7.47;;;;;;;11.72;100.00;101246.56;5041923;28;20039;-75
2022/10/17 04:07:43;;;;;;;11.13;9.82;;;;;;;11.76;100.00;101258.94;5037846;28;20528;-76
2022/10/17 04:10:09;;;;;;;13.27;10.77;;;;;;;11.79;100.00;101258.06;5041883;28;20037;-76
2022/10/17 04:12:35;;;;;;;9.50;8.32;;;;;;;11.80;100.00;101255.38;5040227;28;20709;-76
2022/10/17 04:15:01;;;;;;;10.65;8.55;;;;;;;11.84;100.00;101254.53;5039170;28;20030;-76
2022/10/17 04:17:30;;;;;;;9.40;8.20;;;;;;;11.85;100.00;101253.63;5042465;28;20035;-76
2022/10/17 04:19:55;;;;;;;9.68;8.57;;;;;;;11.87;100.00;101253.69;5037701;28;20372;-75
2022/10/17 04:22:21;;;;;;;9.60;7.78;;;;;;;11.88;100.00;101257.19;5058288;28;20087;-76
2022/10/17 04:24:47;;;;;;;9.32;8.00;;;;;;;11.87;100.00;101253.69;5043145;28;20438;-76
2022/10/17 04:27:23;;;;;;;71.72;46.13;;;;;;;11.87;100.00;101252.78;5046169;28;20033;-76
2022/10/17 04:29:49;;;;;;;18.45;13.93;;;;;;;11.86;100.00;101246.59;5041826;28;20037;-75
2022/10/17 04:32:18;;;;;;;16.13;12.95;;;;;;;11.87;100.00;101251.03;5042110;28;20040;-76
2022/10/17 04:34:52;;;;;;;10.40;9.23;;;;;;;11.87;100.00;101244.84;5039892;28;20091;-76
2022/10/17 04:37:20;;;;;;;13.32;9.88;;;;;;;11.90;100.00;101250.16;5041251;28;20040;-75
2022/10/17 04:39:48;;;;;;;13.05;9.68;;;;;;;11.90;100.00;101258.97;5055147;28;20048;-75
2022/10/17 04:42:13;;;;;;;19.70;14.10;;;;;;;11.91;100.00;101257.19;5041912;28;20040;-75
2022/10/17 04:44:39;;;;;;;20.90;13.63;;;;;;;11.92;100.00;101258.94;5044042;28;20025;-76
2022/10/17 04:47:05;;;;;;;17.63;12.70;;;;;;;11.94;100.00;101263.34;5046553;28;20037;-75
2022/10/17 04:49:30;;;;;;;23.38;14.95;;;;;;;11.95;100.00;101265.13;5045209;28;20037;-75
2022/10/17 04:52:04;;;;;;;24.25;17.48;;;;;;;11.99;100.00;101255.41;5038448;28;20044;-75
2022/10/17 04:54:50;;;;;;;26.73;16.00;;;;;;;12.03;100.00;101263.38;5041149;28;20043;-76
2022/10/17 04:57:17;;;;;;;32.28;17.50;;;;;;;12.06;100.00;101260.72;5043610;28;20037;-75
2022/10/17 04:59:50;;;;;;;31.52;19.25;;;;;;;12.09;100.00;101266.88;5044333;28;20033;-75
2022/10/17 05:02:34;;;;;;;51.72;34.40;;;;;;;12.10;100.00;101264.22;5043432;28;20053;-75
2022/10/17 05:05:01;;;;;;;46.17;30.60;;;;;;;12.11;100.00;101258.06;5045462;28;20147;-74
2022/10/17 05:07:26;;;;;;;18.92;15.13;;;;;;;12.12;100.00;101264.25;5041241;28;20127;-76
2022/10/17 05:09:59;;;;;;;20.55;16.17;;;;;;;12.13;100.00;101258.97;5046116;28;20040;-75
2022/10/17 05:12:25;;;;;;;15.70;12.52;;;;;;;12.13;100.00;101258.97;5042860;28;20037;-76
2022/10/17 05:14:52;;;;;;;22.85;15.00;;;;;;;12.15;100.00;101267.75;5045463;28;20059;-75
2022/10/17 05:17:17;;;;;;;19.02;12.95;;;;;;;12.15;100.00;101278.34;5052759;28;20515;-74
2022/10/17 05:19:43;;;;;;;16.50;11.70;;;;;;;12.13;100.00;101271.28;5044668;28;20041;-76
2022/10/17 05:22:08;;;;;;;15.15;12.18;;;;;;;12.11;100.00;101270.44;5041733;28;20048;-76
2022/10/17 05:24:33;;;;;;;14.93;12.30;;;;;;;12.09;100.00;101267.75;5045882;28;20067;-75
2022/10/17 05:26:59;;;;;;;15.57;11.75;;;;;;;12.09;100.00;101278.34;5043961;28;20053;-76
2022/10/17 05:29:24;;;;;;;21.10;12.20;;;;;;;12.08;100.00;101276.59;5046454;28;20534;-75
2022/10/17 05:31:56;;;;;;;15.32;11.45;;;;;;;12.05;100.00;101282.78;5050920;28;20044;-75
2022/10/17 05:34:23;;;;;;;17.20;9.90;;;;;;;12.03;100.00;101279.25;5043647;28;20037;-75
2022/10/17 05:36:48;;;;;;;10.00;8.25;;;;;;;11.97;100.00;101273.06;5025598;28;20037;-76
2022/10/17 05:39:18;;;;;;;7.50;6.70;;;;;;;11.83;100.00;101283.59;5043037;28;20434;-75
2022/10/17 05:41:45;;;;;;;7.25;6.50;;;;;;;11.79;100.00;101288.03;5044959;28;20438;-75
2022/10/17 05:44:11;;;;;;;13.45;8.60;;;;;;;11.78;100.00;101294.16;5041244;28;20525;-76
2022/10/17 05:46:39;;;;;;;12.60;8.32;;;;;;;11.71;100.00;101297.72;5045268;28;20032;-76
2022/10/17 05:49:05;;;;;;;12.75;8.90;;;;;;;11.75;100.00;101299.47;5042589;28;20144;-76
2022/10/17 05:51:32;;;;;;;11.75;9.50;;;;;;;11.80;100.00;101303.00;5039488;28;20538;-75
2022/10/17 05:53:59;;;;;;;10.70;9.20;;;;;;;11.84;100.00;101302.13;5043937;28;20026;-76
2022/10/17 05:56:26;;;;;;;12.90;9.15;;;;;;;11.87;100.00;101303.03;5043503;28;20502;-76
2022/10/17 05:58:53;;;;;;;12.52;8.82;;;;;;;11.88;100.00;101310.09;5058271;28;20060;-76
2022/10/17 06:01:28;;;;;;;20.17;13.38;;;;;;;11.95;100.00;101315.41;5043308;28;20389;-75
2022/10/17 06:03:54;;;;;;;19.45;13.77;;;;;;;12.04;100.00;101309.22;5043942;28;20044;-76
2022/10/17 06:06:20;;;;;;;24.60;15.90;;;;;;;12.14;100.00;101315.41;5044965;28;20041;-76
2022/10/17 06:08:46;;;;;;;17.60;12.25;;;;;;;12.22;100.00;101317.16;5040849;28;20041;-75
2022/10/17 06:11:15;;;;;;;22.48;15.60;;;;;;;12.33;100.00;101325.09;5042237;28;20037;-76
2022/10/17 06:13:41;;;;;;;16.80;11.98;;;;;;;12.46;100.00;101331.25;5046104;28;20041;-75
2022/10/17 06:16:14;;;;;;;16.88;11.75;;;;;;;12.52;100.00;101325.94;5040746;28;20038;-75
2022/10/17 06:18:40;;;;;;;18.73;11.73;;;;;;;12.60;100.00;101323.28;5046160;28;20055;-76
2022/10/17 06:21:08;;;;;;;16.10;11.63;;;;;;;12.72;100.00;101325.91;5046539;28;20094;-76
2022/10/17 06:23:37;;;;;;;14.48;10.75;;;;;;;12.77;100.00;101339.16;5046565;28;20376;-75
2022/10/17 06:26:10;;;;;;;13.55;11.57;;;;;;;12.85;100.00;101332.06;5045466;28;20068;-76
2022/10/17 06:28:36;;;;;;;13.55;12.13;;;;;;;12.99;100.00;101332.03;5041877;28;20502;-76
2022/10/17 06:31:06;;;;;;;17.40;11.57;;;;;;;13.12;100.00;101339.91;5045382;28;20129;-76
2022/10/17 06:33:32;;;;;;;14.60;11.98;;;;;;;13.20;100.00;101339.88;5042714;28;20071;-76
2022/10/17 06:35:57;;;;;;;33.50;16.50;;;;;;;13.28;100.00;101345.19;5043332;28;20503;-76
2022/10/17 06:38:24;;;;;;;28.17;16.48;;;;;;;13.34;100.00;101345.19;5041932;28;20253;-76
2022/10/17 06:40:53;;;;;;;21.38;14.82;;;;;;;13.43;100.00;101350.44;5042030;28;20029;-76
2022/10/17 06:43:19;;;;;;;18.77;14.25;;;;;;;13.54;100.00;101351.25;5044220;28;20123;-75
2022/10/17 06:45:55;;;;;;;19.85;14.32;;;;;;;13.64;100.00;101348.56;5040770;28;20449;-76
2022/10/17 06:48:44;;;;;;;22.33;15.32;;;;;;;13.78;100.00;101346.69;5045361;28;20040;-75
2022/10/17 06:51:23;;;;;;;17.60;14.38;;;;;;;13.93;100.00;101351.03;5043525;28;20032;-75
2022/10/17 06:53:52;;;;;;;22.10;15.77;;;;;;;14.05;100.00;101345.63;5051310;28;20040;-76
2022/10/17 06:56:45;;;;;;;22.67;17.27;;;;;;;14.19;100.00;101342.88;5044163;28;20466;-75
2022/10/17 06:59:38;;;;;;;28.20;20.60;;;;;;;14.36;100.00;101356.00;5044794;28;20032;-76
2022/10/17 07:02:15;;;;;;;32.88;21.08;;;;;;;14.48;100.00;101356.75;5043555;28;20036;-74
2022/10/17 07:04:45;;;;;;;30.08;22.02;;;;;;;14.62;100.00;101362.00;5041826;28;20044;-76
2022/10/17 07:07:11;;;;;;;26.73;19.80;;;;;;;14.72;100.00;101357.44;5040819;28;20036;-76
2022/10/17 07:09:36;;;;;;;36.70;25.67;;;;;;;14.84;100.00;101360.00;5044437;28;20032;-76
2022/10/17 07:12:02;;;;;;;43.83;27.42;;;;;;;14.98;100.00;101359.84;5039319;28;20037;-75
2022/10/17 07:14:30;;;;;;;32.60;25.33;;;;;;;15.15;100.00;101361.44;5059605;28;20034;-76
2022/10/17 07:16:57;;;;;;;33.88;27.02;;;;;;;15.26;100.00;101365.72;5042289;28;20491;-75
2022/10/17 07:19:24;;;;;;;36.63;28.73;;;;;;;15.42;100.00;101365.53;5040736;28;20083;-76
2022/10/17 07:21:49;;;;;;;33.28;24.90;;;;;;;15.57;100.00;101365.34;5046102;28;20052;-76
2022/10/17 07:24:15;;;;;;;32.15;24.70;;;;;;;15.73;100.00;101374.03;5044918;28;20041;-76
2022/10/17 07:26:45;;;;;;;31.95;24.70;;;;;;;15.88;100.00;101375.59;5039666;28;20033;-76
2022/10/17 07:29:10;;;;;;;32.22;22.67;;;;;;;16.00;100.00;101386.03;5060647;28;20384;-76
2022/10/17 07:31:40;;;;;;;27.17;22.23;;;;;;;16.06;100.00;101382.41;5042085;28;20041;-76
2022/10/17 07:34:06;;;;;;;28.58;22.75;;;;;;;16.15;100.00;101388.47;5047304;28;20033;-76
2022/10/17 07:36:31;;;;;;;29.65;22.80;;;;;;;16.23;100.00;101380.38;5043437;28;20041;-75
2022/10/17 07:38:58;;;;;;;27.83;23.10;;;;;;;16.33;100.00;101378.44;5042139;28;20556;-76
2022/10/17 07:41:24;;;;;;;25.85;21.88;;;;;;;16.36;100.00;101381.91;5045106;28;20041;-76
2022/10/17 07:43:50;;;;;;;27.67;22.27;;;;;;;16.38;100.00;101384.56;5042372;28;20034;-75
2022/10/17 07:46:19;;;;;;;30.75;23.83;;;;;;;16.41;100.00;101384.50;5041138;28;20044;-76
2022/10/17 07:48:45;;;;;;;30.58;22.25;;;;;;;16.50;100.00;101383.47;5043510;28;20399;-76
2022/10/17 07:51:10;;;;;;;32.58;23.58;;;;;;;16.60;100.00;101379.75;5039247;28;20038;-75
2022/10/17 07:53:38;;;;;;;35.58;22.73;;;;;;;16.65;100.00;101378.75;5044109;28;20072;-76
2022/10/17 07:56:07;;;;;;;29.00;24.77;;;;;;;16.75;100.00;101386.59;5041663;28;20547;-75
2022/10/17 07:58:33;;;;;;;26.52;22.23;;;;;;;16.85;100.00;101372.22;5045727;28;20028;-75
2022/10/17 08:01:00;;;;;;;27.80;22.90;;;;;;;17.01;100.00;101379.03;5043704;28;20033;-76
2022/10/17 08:03:25;;;;;;;29.00;23.00;;;;;;;17.02;100.00;101377.22;5045497;28;20033;-76
2022/10/17 08:05:51;;;;;;;29.63;22.23;;;;;;;17.01;100.00;101379.03;5044385;28;20032;-76
2022/10/17 08:08:16;;;;;;;27.40;21.52;;;;;;;17.06;100.00;101377.16;5042415;28;20037;-76
2022/10/17 08:10:41;;;;;;;25.95;20.67;;;;;;;17.16;100.00;101374.28;5040436;28;20037;-76
2022/10/17 08:13:07;;;;;;;23.73;19.67;;;;;;;17.28;100.00;101379.38;5045025;28;20041;-76
2022/10/17 08:15:32;;;;;;;23.95;20.70;;;;;;;17.38;100.00;101375.63;5048157;28;20174;-76
2022/10/17 08:17:58;;;;;;;26.85;21.33;;;;;;;17.46;100.00;101373.66;5039148;28;20034;-76
2022/10/17 08:20:23;;;;;;;29.83;23.15;;;;;;;17.56;100.00;101373.47;5044188;28;20460;-76
2022/10/17 08:22:53;;;;;;;25.65;22.17;;;;;;;17.59;100.00;101374.28;5041250;28;20045;-76
2022/10/17 08:25:18;;;;;;;23.77;19.92;;;;;;;17.65;100.00;101376.81;5041739;28;20038;-76
2022/10/17 08:27:43;;;;;;;21.58;19.10;;;;;;;17.68;100.00;101379.44;5044618;28;20045;-76
2022/10/17 08:30:09;;;;;;;26.98;21.23;;;;;;;17.72;100.00;101382.91;5042476;28;20042;-76
2022/10/17 08:32:34;;;;;;;31.23;24.70;;;;;;;17.80;100.00;101383.63;5043985;28;20033;-76
2022/10/17 08:35:00;;;;;;;27.20;22.60;;;;;;;17.94;100.00;101380.63;5044321;28;20041;-76
2022/10/17 08:37:25;;;;;;;28.77;21.83;;;;;;;18.09;99.24;101385.63;5041906;28;20036;-76
2022/10/17 08:39:50;;;;;;;26.55;21.83;;;;;;;18.28;98.78;101378.03;5045291;28;20032;-76
2022/10/17 08:42:24;;;;;;;24.48;19.90;;;;;;;18.45;97.56;101382.09;5042174;28;20037;-75
2022/10/17 08:45:11;;;;;;;21.70;18.90;;;;;;;18.52;94.26;101379.25;5042608;28;20154;-76
2022/10/17 08:47:39;;;;;;;27.17;20.13;;;;;;;18.59;95.10;101377.28;5042349;28;20060;-76
2022/10/17 08:50:11;;;;;;;23.55;19.92;;;;;;;18.55;94.85;101378.28;5035431;28;20051;-76
2022/10/17 08:52:55;;;;;;;;;;;;;;;18.55;94.33;101380.97;5042127;28;20044;-76
2022/10/17 08:55:39;;;;;;;22.58;18.98;;;;;;;18.66;94.64;101386.91;5044446;28;19923;-76
2022/10/17 08:58:35;;;;;;;70.57;35.75;;;;;;;18.73;93.98;101379.56;5042383;28;20040;-76
2022/10/17 09:01:35;;;;;;;44.47;33.83;;;;;;;18.76;93.34;101377.75;5029330;28;20470;-75
2022/10/17 09:04:00;;;;;;;75.78;40.05;;;;;;;18.75;94.35;101370.63;5041851;28;20060;-76
2022/10/17 09:06:33;;;;;;;37.35;29.92;;;;;;;18.78;93.56;101370.53;5040700;28;20411;-76
2022/10/17 09:09:11;;;;;;;25.80;22.55;;;;;;;18.92;91.60;101372.00;5044785;28;20041;-76
2022/10/17 09:12:08;;;;;;;24.65;22.02;;;;;;;19.00;90.45;101372.66;5043783;28;20136;-76
2022/10/17 09:14:47;;;;;;;27.85;23.50;;;;;;;19.06;91.54;101375.16;5039803;28;20113;-76
2022/10/17 09:17:34;;;;;;;26.67;22.50;;;;;;;19.16;90.74;101371.28;5041514;28;20139;-76
2022/10/17 09:20:17;;;;;;;24.17;19.63;;;;;;;19.27;89.94;101374.53;5045984;28;20029;-76
2022/10/17 09:22:52;;;;;;;24.33;21.73;;;;;;;19.38;89.58;101376.88;5041924;28;20033;-76
2022/10/17 09:25:19;;;;;;;25.50;21.15;;;;;;;19.45;89.33;101373.13;5043056;28;20534;-76
2022/10/17 09:28:18;;;;;;;23.63;20.35;;;;;;;19.56;87.22;101375.47;5044347;28;20036;-76
2022/10/17 09:30:46;;;;;;;30.42;23.00;;;;;;;19.70;88.10;101372.41;5036849;28;20136;-76
2022/10/17 09:33:17;;;;;;;26.85;20.30;;;;;;;19.70;86.40;101369.72;5045116;28;20033;-76
2022/10/17 09:35:44;;;;;;;22.60;18.70;;;;;;;19.76;86.96;101361.53;5051437;28;20147;-76
2022/10/17 09:38:16;;;;;;;25.27;20.23;;;;;;;19.87;85.63;101363.88;5042078;28;20412;-76
2022/10/17 09:40:43;;;;;;;22.85;19.08;;;;;;;19.98;85.33;101361.72;5043915;28;20071;-76
2022/10/17 09:43:12;;;;;;;28.60;20.40;;;;;;;19.98;85.60;101360.84;5045763;28;20048;-76
2022/10/17 09:45:45;;;;;;;20.67;17.50;;;;;;;20.03;84.33;101361.56;5045155;28;20065;-76
2022/10/17 09:48:30;;;;;;;18.02;16.20;;;;;;;20.08;82.35;101364.97;5044493;28;20527;-76
2022/10/17 09:50:56;;;;;;;20.02;17.27;;;;;;;20.18;83.98;101362.88;5045200;28;20033;-76
2022/10/17 09:53:32;;;;;;;22.92;17.13;;;;;;;20.40;82.71;101363.03;5047548;28;20048;-76
2022/10/17 09:56:01;;;;;;;20.85;18.10;;;;;;;20.53;82.24;101359.88;5047938;28;20037;-77
2022/10/17 09:58:54;;;;;;;22.17;16.73;;;;;;;20.71;81.96;101365.56;5045555;28;20041;-76
2022/10/17 10:01:27;;;;;;;17.90;16.00;;;;;;;20.76;80.29;101366.28;5045099;28;20063;-76
2022/10/17 10:04:14;;;;;;;19.08;17.08;;;;;;;20.91;78.15;101375.59;5048064;28;20594;-76
2022/10/17 10:06:59;;;;;;;22.23;15.90;;;;;;;21.05;79.54;101377.78;5046816;28;20040;-77
2022/10/17 10:09:28;;;;;;;19.05;14.25;;;;;;;21.05;77.21;101362.56;5046186;28;20048;-77
2022/10/17 10:11:55;;;;;;;16.15;14.50;;;;;;;21.08;76.21;101364.25;5045470;28;20048;-76
2022/10/17 10:14:38;;;;;;;18.02;14.40;;;;;;;21.16;75.23;101360.34;5048580;28;20029;-76
2022/10/17 10:17:24;;;;;;;21.48;16.85;;;;;;;21.27;74.43;101365.31;5047568;28;20068;-76
2022/10/17 10:19:50;;;;;;;20.55;15.82;;;;;;;21.40;73.10;101357.69;5045525;28;20041;-76
2022/10/17 10:22:22;;;;;;;19.20;17.45;;;;;;;21.29;71.02;101358.06;5047275;28;20100;-76
2022/10/17 10:25:16;;;;;;;16.10;14.45;;;;;;;21.43;71.67;101366.53;5045634;28;20041;-75
2022/10/17 10:27:45;;;;;;;24.05;19.77;;;;;;;21.56;73.32;101368.72;5045363;28;20041;-76
2022/10/17 10:30:20;;;;;;;17.45;15.75;;;;;;;21.60;71.36;101363.19;5044953;28;20045;-76
2022/10/17 10:32:47;;;;;;;16.75;14.65;;;;;;;21.65;71.78;101357.63;5048428;28;20033;-77
2022/10/17 10:35:34;;;;;;;16.35;14.63;;;;;;;21.69;69.08;101359.25;5046816;28;20025;-76
2022/10/17 10:38:02;;;;;;;16.73;15.10;;;;;;;21.84;70.71;101355.09;5044084;28;20053;-77
2022/10/17 10:40:33;;;;;;;18.15;16.25;;;;;;;21.98;71.00;101363.50;5046159;28;20099;-77
2022/10/17 10:43:00;;;;;;;18.00;16.15;;;;;;;22.12;71.09;101354.84;5044127;28;20033;-76
2022/10/17 10:45:28;;;;;;;20.15;15.55;;;;;;;22.26;70.10;101351.63;5047667;28;20037;-76
2022/10/17 10:47:55;;;;;;;18.10;16.00;;;;;;;22.41;69.53;101358.19;5040755;28;20045;-76
2022/10/17 10:50:44;;;;;;;15.18;13.68;;;;;;;22.54;67.82;101348.66;5045724;28;20041;-77
2022/10/17 10:53:40;;;;;;;18.05;15.30;;;;;;;22.58;65.94;101350.25;5045171;28;20651;-76
2022/10/17 10:56:20;;;;;;;15.35;13.75;;;;;;;22.73;65.78;101349.56;5044704;28;20060;-77
2022/10/17 10:59:01;;;;;;;17.60;15.73;;;;;;;22.91;65.22;101347.03;5043249;28;20033;-75
2022/10/17 11:01:56;;;;;;;17.95;16.20;;;;;;;23.02;64.86;101338.50;5043895;28;20092;-76
2022/10/17 11:04:44;;;;;;;17.75;13.23;;;;;;;23.07;63.80;101329.25;5043340;28;20037;-77
2022/10/17 11:07:16;;;;;;;18.25;15.07;;;;;;;23.14;65.29;101330.75;5044054;28;20123;-77
2022/10/17 11:09:41;;;;;;;23.40;17.73;;;;;;;23.15;64.36;101340.56;5045121;28;20032;-76
2022/10/17 11:12:17;;;;;;;16.20;14.50;;;;;;;23.22;63.49;101337.59;5044170;28;20044;-76
2022/10/17 11:14:57;;;;;;;16.02;14.30;;;;;;;23.25;63.19;101340.16;5043377;28;20029;-77
2022/10/17 11:17:33;;;;;;;17.30;15.55;;;;;;;23.17;62.35;101329.72;5042584;28;20049;-76
2022/10/17 11:20:05;;;;;;;19.35;13.95;;;;;;;23.27;62.69;101325.66;5044889;28;20033;-76
2022/10/17 11:22:36;;;;;;;23.77;16.77;;;;;;;23.39;61.00;101325.06;5043719;28;20507;-76
2022/10/17 11:25:21;;;;;;;21.90;19.33;;;;;;;23.61;61.13;101326.75;5043313;28;20052;-75
2022/10/17 11:27:47;;;;;;;16.58;14.88;;;;;;;23.69;60.80;101327.25;5044000;28;20191;-76